createdAt,value
2023-02-16T00:03:22.761Z,17.52
2023-02-16T00:05:51.765Z,17.20
2023-02-16T00:08:22.799Z,19.98
2023-02-16T00:10:50.507Z,20.83
2023-02-16T00:13:23.244Z,23.25
2023-02-16T00:15:52.211Z,25.33
2023-02-16T00:18:21.632Z,27.67
2023-02-16T00:20:50.352Z,30.88
2023-02-16T00:23:18.485Z,21.30
2023-02-16T00:25:47.509Z,21.42
2023-02-16T00:28:19.556Z,22.00
2023-02-16T00:30:47.914Z,20.40
2023-02-16T00:33:19.045Z,20.35
2023-02-16T00:35:47.170Z,17.73
2023-02-16T00:38:15.352Z,15.43
2023-02-16T00:40:43.749Z,20.42
2023-02-16T00:43:24.724Z,23.63
2023-02-16T00:45:53.494Z,23.67
2023-02-16T00:48:21.402Z,30.30
2023-02-16T00:50:49.180Z,29.80
2023-02-16T00:53:17.487Z,28.08
2023-02-16T00:55:45.442Z,30.10
2023-02-16T00:58:21.582Z,28.15
2023-02-16T01:00:52.954Z,18.15
2023-02-16T01:05:51.137Z,11.45
2023-02-16T01:08:19.531Z,11.55
2023-02-16T01:10:49.516Z,12.52
2023-02-16T01:13:24.869Z,11.93
2023-02-16T01:15:52.796Z,13.25
2023-02-16T01:18:22.046Z,11.85
2023-02-16T01:20:49.830Z,12.88
2023-02-16T01:23:17.873Z,12.85
2023-02-16T01:25:45.590Z,13.13
2023-02-16T01:28:19.133Z,11.45
2023-02-16T01:30:49.150Z,15.73
2023-02-16T01:33:17.522Z,13.85
2023-02-16T01:35:45.851Z,12.32
2023-02-16T01:38:18.837Z,13.02
2023-02-16T01:40:53.685Z,14.15
2023-02-16T01:43:24.829Z,12.38
2023-02-16T01:45:59.962Z,12.88
2023-02-16T01:48:30.526Z,16.33
2023-02-16T01:51:06.113Z,14.75
2023-02-16T01:53:38.968Z,13.43
2023-02-16T01:56:15.428Z,11.82
2023-02-16T01:58:47.287Z,10.98
2023-02-16T02:01:40.125Z,12.98
2023-02-16T02:04:19.308Z,13.93
2023-02-16T02:06:47.862Z,11.57
2023-02-16T02:09:23.048Z,10.85
2023-02-16T02:11:57.573Z,11.57
2023-02-16T02:14:30.250Z,13.85
2023-02-16T02:17:02.510Z,12.50
2023-02-16T02:19:38.774Z,12.02
2023-02-16T02:22:33.452Z,13.63
2023-02-16T02:25:43.894Z,11.75
2023-02-16T02:28:17.872Z,12.05
2023-02-16T02:30:50.263Z,10.68
2023-02-16T02:33:39.173Z,12.65
2023-02-16T02:36:18.018Z,12.93
2023-02-16T02:38:56.282Z,13.90
2023-02-16T02:41:30.217Z,11.75
2023-02-16T02:44:05.673Z,15.80
2023-02-16T02:46:36.245Z,22.60
2023-02-16T02:49:04.638Z,20.40
2023-02-16T02:51:32.778Z,28.88
2023-02-16T02:54:03.262Z,38.10
2023-02-16T02:56:31.054Z,38.95
2023-02-16T02:59:04.882Z,37.00
2023-02-16T03:01:36.026Z,40.88
2023-02-16T03:04:06.695Z,36.28
2023-02-16T03:06:38.638Z,33.05
2023-02-16T03:09:10.780Z,30.38
2023-02-16T03:11:38.897Z,27.60
2023-02-16T03:14:12.610Z,23.15
2023-02-16T03:16:44.662Z,19.63
2023-02-16T03:19:17.057Z,19.30
2023-02-16T03:21:45.085Z,18.73
2023-02-16T03:24:17.924Z,18.73
2023-02-16T03:26:46.919Z,17.42
2023-02-16T03:29:17.065Z,12.57
2023-02-16T03:31:45.885Z,16.55
2023-02-16T03:34:14.749Z,14.73
2023-02-16T03:36:44.930Z,16.77
2023-02-16T03:39:13.627Z,13.07
2023-02-16T03:41:46.053Z,15.65
2023-02-16T03:44:15.381Z,13.60
2023-02-16T03:46:43.135Z,16.13
2023-02-16T03:49:11.482Z,14.40
2023-02-16T03:51:39.266Z,13.15
2023-02-16T03:54:07.406Z,13.48
2023-02-16T03:56:35.450Z,14.52
2023-02-16T03:59:03.251Z,12.00
2023-02-16T04:01:33.456Z,16.13
2023-02-16T04:04:01.145Z,15.80
2023-02-16T04:06:29.168Z,18.02
2023-02-16T04:08:56.936Z,13.27
2023-02-16T04:11:25.219Z,13.18
2023-02-16T04:13:52.949Z,13.50
2023-02-16T04:16:20.633Z,16.40
2023-02-16T04:18:50.418Z,11.02
2023-02-16T04:21:18.122Z,15.35
2023-02-16T04:23:45.885Z,15.38
2023-02-16T04:26:13.554Z,9.45
2023-02-16T04:28:41.263Z,13.55
2023-02-16T04:31:09.293Z,14.63
2023-02-16T04:33:37.040Z,10.63
2023-02-16T04:36:07.990Z,34.30
2023-02-16T04:38:37.414Z,70.35
2023-02-16T04:41:06.046Z,68.53
2023-02-16T04:43:35.263Z,40.17
2023-02-16T04:46:03.017Z,47.85
2023-02-16T04:48:30.594Z,107.40
2023-02-16T04:50:59.719Z,137.25
2023-02-16T04:53:28.899Z,70.72
2023-02-16T04:55:56.506Z,23.75
2023-02-16T04:58:24.521Z,27.73
2023-02-16T05:00:52.336Z,18.98
2023-02-16T05:03:20.051Z,24.77
2023-02-16T05:05:48.005Z,22.27
2023-02-16T05:08:15.879Z,18.60
2023-02-16T05:10:46.883Z,20.95
2023-02-16T05:15:45.020Z,18.98
2023-02-16T05:18:12.703Z,21.70
2023-02-16T05:20:40.959Z,22.23
2023-02-16T05:23:08.696Z,21.83
2023-02-16T05:25:36.255Z,17.08
2023-02-16T05:28:05.568Z,15.60
2023-02-16T05:30:33.642Z,17.98
2023-02-16T05:33:01.481Z,14.63
2023-02-16T05:35:29.512Z,17.42
2023-02-16T05:37:57.520Z,19.35
2023-02-16T05:40:25.297Z,18.23
2023-02-16T05:42:54.418Z,20.73
2023-02-16T05:45:23.522Z,21.50
2023-02-16T05:47:51.061Z,18.20
2023-02-16T05:50:19.022Z,17.20
2023-02-16T05:52:46.748Z,15.23
2023-02-16T05:55:14.604Z,14.60
2023-02-16T05:57:42.351Z,16.55
2023-02-16T06:00:11.449Z,16.30
2023-02-16T06:02:40.516Z,13.73
2023-02-16T06:05:08.684Z,18.98
2023-02-16T06:07:36.625Z,16.77
2023-02-16T06:10:05.122Z,17.58
2023-02-16T06:12:35.993Z,17.42
2023-02-16T06:15:04.000Z,18.13
2023-02-16T06:17:32.024Z,19.10
2023-02-16T06:20:02.167Z,19.02
2023-02-16T06:22:30.306Z,18.80
2023-02-16T06:24:58.872Z,17.80
2023-02-16T06:27:26.798Z,20.10
2023-02-16T06:29:54.593Z,18.77
2023-02-16T06:32:22.532Z,19.60
2023-02-16T06:34:53.093Z,18.75
2023-02-16T06:37:23.069Z,26.45
2023-02-16T06:39:50.886Z,27.35
2023-02-16T06:42:18.627Z,28.77
2023-02-16T06:44:46.409Z,31.83
2023-02-16T06:47:14.514Z,35.85
2023-02-16T06:49:42.312Z,32.33
2023-02-16T06:52:10.873Z,30.83
2023-02-16T06:54:41.026Z,35.67
2023-02-16T06:57:09.055Z,30.33
2023-02-16T06:59:36.711Z,30.83
2023-02-16T07:02:04.268Z,31.25
2023-02-16T07:04:32.377Z,30.90
2023-02-16T07:07:00.143Z,30.63
2023-02-16T07:09:27.871Z,29.40
2023-02-16T07:11:57.005Z,28.55
2023-02-16T07:14:25.775Z,25.15
2023-02-16T07:16:54.054Z,25.25
2023-02-16T07:19:21.693Z,23.17
2023-02-16T07:21:49.710Z,24.45
2023-02-16T07:24:17.587Z,23.25
2023-02-16T07:26:45.417Z,19.95
2023-02-16T07:29:14.647Z,17.88
2023-02-16T07:31:42.419Z,18.83
2023-02-16T07:34:10.136Z,18.90
2023-02-16T07:36:38.393Z,17.52
2023-02-16T07:39:06.186Z,20.98
2023-02-16T07:41:33.907Z,43.47
2023-02-16T07:44:01.764Z,29.52
2023-02-16T07:46:33.264Z,31.33
2023-02-16T07:49:02.319Z,44.83
2023-02-16T07:51:31.077Z,34.75
2023-02-16T07:53:59.867Z,28.90
2023-02-16T07:56:29.852Z,20.52
2023-02-16T07:58:58.889Z,23.05
2023-02-16T08:01:27.580Z,22.00
2023-02-16T08:03:57.128Z,30.40
2023-02-16T08:06:24.965Z,14.32
2023-02-16T08:08:52.607Z,16.95
2023-02-16T08:11:22.327Z,16.48
2023-02-16T08:13:51.245Z,14.93
2023-02-16T08:16:20.943Z,17.23
2023-02-16T08:18:49.136Z,10.85
2023-02-16T08:21:20.916Z,13.68
2023-02-16T08:23:54.269Z,13.90
2023-02-16T08:26:24.552Z,13.82
2023-02-16T08:28:52.383Z,13.50
2023-02-16T08:31:22.268Z,12.13
2023-02-16T08:33:50.984Z,9.70
2023-02-16T08:36:21.089Z,11.70
2023-02-16T08:38:49.333Z,10.50
2023-02-16T08:41:17.463Z,12.07
2023-02-16T08:43:45.629Z,13.40
2023-02-16T08:46:14.079Z,14.27
2023-02-16T08:48:42.070Z,13.55
2023-02-16T08:51:14.272Z,12.57
2023-02-16T08:53:43.590Z,14.73
2023-02-16T08:56:11.499Z,15.80
2023-02-16T08:58:40.003Z,16.05
2023-02-16T09:01:08.878Z,14.52
2023-02-16T09:03:37.822Z,13.18
2023-02-16T09:06:06.620Z,12.10
2023-02-16T09:08:35.045Z,13.10
2023-02-16T09:11:05.596Z,14.85
2023-02-16T09:13:35.774Z,12.70
2023-02-16T09:16:04.485Z,13.45
2023-02-16T09:18:33.896Z,10.52
2023-02-16T09:21:04.669Z,10.95
2023-02-16T09:23:32.740Z,12.63
2023-02-16T09:26:00.503Z,15.20
2023-02-16T09:28:30.033Z,15.35
2023-02-16T09:30:57.741Z,12.52
2023-02-16T09:33:26.463Z,16.00
2023-02-16T09:35:56.012Z,16.30
2023-02-16T09:38:23.665Z,15.60
2023-02-16T09:40:51.946Z,14.57
2023-02-16T09:43:37.966Z,15.43
2023-02-16T09:46:15.583Z,15.67
2023-02-16T09:48:45.718Z,15.05
2023-02-16T09:51:21.009Z,16.85
2023-02-16T09:53:56.225Z,13.65
2023-02-16T09:56:32.491Z,13.38
2023-02-16T09:59:10.701Z,15.10
2023-02-16T10:01:47.899Z,15.38
2023-02-16T10:04:29.732Z,15.20
2023-02-16T10:07:11.907Z,14.75
2023-02-16T10:09:45.106Z,11.80
2023-02-16T10:12:18.928Z,17.02
2023-02-16T10:14:51.654Z,15.05
2023-02-16T10:17:25.653Z,13.55
2023-02-16T10:19:55.707Z,13.68
2023-02-16T10:22:30.146Z,16.33
2023-02-16T10:25:01.435Z,18.20
2023-02-16T10:27:35.027Z,11.93
2023-02-16T10:30:12.053Z,12.88
2023-02-16T10:32:51.158Z,11.93
2023-02-16T10:35:25.656Z,12.70
2023-02-16T10:38:02.731Z,18.20
2023-02-16T10:40:37.354Z,16.80
2023-02-16T10:43:13.202Z,11.40
2023-02-16T10:45:52.259Z,12.13
2023-02-16T10:48:21.820Z,13.23
2023-02-16T10:51:02.002Z,14.43
2023-02-16T10:53:39.241Z,13.85
2023-02-16T10:56:37.208Z,11.00
2023-02-16T10:59:07.502Z,16.33
2023-02-16T11:01:40.117Z,10.33
2023-02-16T11:04:30.782Z,16.67
2023-02-16T11:07:07.765Z,18.70
2023-02-16T11:09:36.226Z,29.88
2023-02-16T11:12:24.477Z,18.23
2023-02-16T11:14:56.763Z,13.40
2023-02-16T11:19:59.544Z,13.77
2023-02-16T11:22:32.906Z,15.10
2023-02-16T11:25:24.186Z,12.75
2023-02-16T11:27:56.914Z,12.15
2023-02-16T11:30:32.798Z,13.50
2023-02-16T11:33:04.393Z,13.23
2023-02-16T11:35:42.185Z,16.02
2023-02-16T11:38:28.434Z,10.88
2023-02-16T11:40:58.267Z,12.15
2023-02-16T11:43:29.219Z,16.52
2023-02-16T11:45:59.621Z,40.27
2023-02-16T11:48:30.963Z,13.65
2023-02-16T11:51:03.039Z,14.07
2023-02-16T11:53:34.235Z,12.65
2023-02-16T11:56:17.603Z,11.57
2023-02-16T11:58:45.523Z,14.40
2023-02-16T12:01:23.741Z,13.20
2023-02-16T12:04:07.866Z,13.85
2023-02-16T12:06:59.532Z,14.77
2023-02-16T12:09:38.545Z,10.63
2023-02-16T12:12:13.177Z,13.25
2023-02-16T12:14:49.434Z,14.85
2023-02-16T12:17:35.938Z,12.55
2023-02-16T12:20:22.306Z,14.07
2023-02-16T12:22:56.679Z,12.55
2023-02-16T12:25:36.497Z,13.20
2023-02-16T12:28:13.595Z,11.52
2023-02-16T12:30:57.779Z,14.10
2023-02-16T12:33:43.437Z,11.57
2023-02-16T12:36:36.275Z,11.93
2023-02-16T12:39:16.535Z,13.63
2023-02-16T12:42:03.685Z,12.57
2023-02-16T12:44:37.405Z,17.52
2023-02-16T12:47:09.558Z,13.23
2023-02-16T12:49:48.614Z,12.18
2023-02-16T12:52:28.260Z,12.82
2023-02-16T12:55:02.608Z,14.88
2023-02-16T12:57:32.499Z,13.45
2023-02-16T13:00:09.494Z,16.73
2023-02-16T13:02:44.931Z,15.10
2023-02-16T13:05:20.156Z,17.27
2023-02-16T13:07:52.949Z,16.55
2023-02-16T13:10:23.466Z,16.27
2023-02-16T13:12:57.949Z,15.32
2023-02-16T13:15:32.626Z,14.27
2023-02-16T13:18:04.594Z,12.50
2023-02-16T13:20:33.685Z,13.15
2023-02-16T13:23:37.687Z,15.73
2023-02-16T13:26:20.934Z,14.13
2023-02-16T13:29:42.120Z,14.95
2023-02-16T13:32:32.303Z,15.90
2023-02-16T13:35:21.232Z,15.13
2023-02-16T13:38:04.967Z,18.77
2023-02-16T13:41:06.849Z,13.48
2023-02-16T13:43:41.659Z,14.15
2023-02-16T13:46:18.182Z,13.93
2023-02-16T13:48:50.775Z,16.63
2023-02-16T13:51:20.807Z,12.85
2023-02-16T13:53:54.861Z,12.30
2023-02-16T13:56:37.511Z,20.77
2023-02-16T13:59:57.306Z,16.92
2023-02-16T14:02:58.944Z,15.80
2023-02-16T14:05:30.493Z,23.27
2023-02-16T14:08:20.417Z,18.63
2023-02-16T14:11:11.445Z,17.40
2023-02-16T14:13:49.623Z,21.08
2023-02-16T14:16:32.511Z,24.00
2023-02-16T14:19:16.787Z,29.83
2023-02-16T14:21:47.335Z,35.08
2023-02-16T14:24:28.383Z,31.85
2023-02-16T14:26:57.769Z,22.83
2023-02-16T14:29:32.105Z,20.77
2023-02-16T14:32:05.940Z,19.02
2023-02-16T14:34:40.035Z,19.85
2023-02-16T14:37:35.843Z,21.48
2023-02-16T14:40:41.690Z,24.10
2023-02-16T14:43:23.349Z,48.05
2023-02-16T14:46:27.425Z,33.92
2023-02-16T14:49:33.579Z,27.30
2023-02-16T14:52:42.383Z,26.80
2023-02-16T14:55:46.302Z,23.92
2023-02-16T14:58:27.300Z,21.45
2023-02-16T15:01:02.565Z,20.75
2023-02-16T15:03:43.387Z,21.40
2023-02-16T15:06:19.725Z,22.20
2023-02-16T15:08:53.614Z,59.95
2023-02-16T15:11:30.706Z,52.40
2023-02-16T15:14:10.832Z,28.73
2023-02-16T15:16:42.493Z,28.23
2023-02-16T15:19:17.485Z,132.15
2023-02-16T15:21:45.305Z,56.03
2023-02-16T15:24:23.616Z,33.92
2023-02-16T15:26:56.860Z,25.15
2023-02-16T15:29:28.343Z,36.47
2023-02-16T15:31:58.704Z,36.72
2023-02-16T15:34:32.529Z,35.78
2023-02-16T15:37:01.059Z,42.70
2023-02-16T15:39:45.177Z,42.92
2023-02-16T15:42:22.424Z,37.83
2023-02-16T15:44:50.182Z,56.53
2023-02-16T15:47:22.570Z,54.83
2023-02-16T15:49:52.760Z,56.17
2023-02-16T15:52:29.250Z,53.45
2023-02-16T15:54:57.487Z,53.28
2023-02-16T15:57:29.335Z,39.40
2023-02-16T15:59:58.769Z,37.15
2023-02-16T16:02:34.279Z,46.08
2023-02-16T16:05:07.345Z,53.10
2023-02-16T16:07:39.331Z,44.67
2023-02-16T16:10:17.055Z,44.40
2023-02-16T16:12:46.489Z,49.13
2023-02-16T16:15:19.376Z,41.15
2023-02-16T16:17:52.102Z,38.83
2023-02-16T16:20:29.136Z,38.78
2023-02-16T16:22:59.256Z,36.40
2023-02-16T16:25:39.237Z,45.50
2023-02-16T16:28:11.060Z,39.45
2023-02-16T16:30:40.571Z,35.20
2023-02-16T16:33:09.890Z,40.80
2023-02-16T16:35:42.011Z,50.42
2023-02-16T16:38:23.153Z,48.58
2023-02-16T16:40:53.561Z,45.17
2023-02-16T16:43:26.584Z,32.58
2023-02-16T16:45:58.360Z,37.15
2023-02-16T16:48:29.229Z,32.97
2023-02-16T16:51:11.365Z,26.43
2023-02-16T16:53:41.663Z,27.95
2023-02-16T16:56:11.322Z,32.17
2023-02-16T16:58:39.720Z,31.50
2023-02-16T17:01:07.585Z,35.92
2023-02-16T17:03:35.553Z,33.33
2023-02-16T17:06:03.833Z,27.75
2023-02-16T17:08:33.471Z,32.30
2023-02-16T17:11:16.176Z,28.17
2023-02-16T17:13:44.323Z,33.55
2023-02-16T17:16:17.051Z,36.78
2023-02-16T17:18:44.983Z,36.70
2023-02-16T17:21:13.816Z,37.35
2023-02-16T17:23:52.348Z,36.85
2023-02-16T17:26:21.409Z,35.78
2023-02-16T17:28:50.586Z,33.80
2023-02-16T17:31:18.292Z,40.63
2023-02-16T17:33:47.951Z,32.15
2023-02-16T17:36:16.514Z,28.13
2023-02-16T17:38:45.578Z,30.92
2023-02-16T17:41:20.107Z,33.15
2023-02-16T17:43:47.881Z,33.38
2023-02-16T17:46:21.264Z,30.35
2023-02-16T17:48:51.904Z,34.17
2023-02-16T17:51:22.183Z,29.10
2023-02-16T17:53:54.547Z,34.67
2023-02-16T17:56:24.820Z,32.22
2023-02-16T17:58:52.755Z,43.13
2023-02-16T18:01:21.139Z,35.60
2023-02-16T18:03:51.274Z,35.47
2023-02-16T18:06:22.083Z,33.03
2023-02-16T18:08:49.980Z,32.55
2023-02-16T18:11:20.282Z,29.83
2023-02-16T18:13:47.841Z,31.35
2023-02-16T18:16:26.867Z,36.70
2023-02-16T18:18:55.990Z,37.85
2023-02-16T18:21:23.825Z,35.17
2023-02-16T18:23:51.674Z,36.80
2023-02-16T18:26:20.810Z,31.48
2023-02-16T18:28:48.601Z,33.85
2023-02-16T18:31:16.492Z,36.35
2023-02-16T18:33:44.162Z,37.85
2023-02-16T18:36:11.921Z,38.80
2023-02-16T18:38:40.768Z,32.17
2023-02-16T18:41:08.441Z,31.23
2023-02-16T18:43:38.879Z,30.08
2023-02-16T18:46:08.039Z,31.67
2023-02-16T18:48:36.686Z,33.28
2023-02-16T18:51:05.342Z,36.58
2023-02-16T18:53:34.629Z,32.70
2023-02-16T18:56:02.925Z,30.23
2023-02-16T18:58:30.888Z,32.55
2023-02-16T19:01:00.173Z,31.13
2023-02-16T19:03:30.095Z,26.75
2023-02-16T19:05:57.840Z,29.85
2023-02-16T19:08:25.532Z,26.02
2023-02-16T19:10:53.496Z,30.38
2023-02-16T19:13:21.122Z,31.70
2023-02-16T19:15:51.072Z,42.95
2023-02-16T19:18:20.222Z,34.35
2023-02-16T19:20:47.753Z,40.38
2023-02-16T19:23:15.809Z,35.80
2023-02-16T19:25:43.757Z,30.48
2023-02-16T19:28:11.662Z,35.15
2023-02-16T19:30:39.424Z,29.73
2023-02-16T19:33:07.381Z,30.55
2023-02-16T19:35:36.670Z,32.00
2023-02-16T19:38:04.979Z,27.25
2023-02-16T19:40:32.668Z,29.13
2023-02-16T19:43:03.713Z,31.67
2023-02-16T19:45:31.647Z,27.48
2023-02-16T19:48:04.049Z,30.50
2023-02-16T19:50:32.087Z,31.70
2023-02-16T19:53:01.219Z,42.55
2023-02-16T19:55:29.200Z,60.10
2023-02-16T19:57:57.027Z,63.70
2023-02-16T20:00:25.174Z,62.13
2023-02-16T20:02:53.084Z,51.95
2023-02-16T20:05:20.767Z,50.78
2023-02-16T20:07:49.046Z,42.80
2023-02-16T20:10:18.472Z,35.22
2023-02-16T20:12:46.339Z,31.13
2023-02-16T20:15:16.145Z,31.33
2023-02-16T20:17:45.942Z,30.08
2023-02-16T20:20:13.931Z,24.55
2023-02-16T20:22:42.234Z,24.30
2023-02-16T20:25:10.142Z,24.60
2023-02-16T20:27:39.370Z,23.30
2023-02-16T20:30:09.670Z,25.95
2023-02-16T20:32:37.996Z,19.88
2023-02-16T20:35:06.664Z,28.58
2023-02-16T20:37:35.612Z,21.98
2023-02-16T20:40:04.012Z,21.75
2023-02-16T20:42:37.010Z,24.05
2023-02-16T20:45:07.154Z,24.75
2023-02-16T20:47:34.706Z,23.50
2023-02-16T20:50:02.961Z,25.42
2023-02-16T20:52:30.898Z,25.75
2023-02-16T20:54:58.996Z,24.30
2023-02-16T20:57:27.516Z,33.75
2023-02-16T20:59:56.154Z,31.65
2023-02-16T21:02:25.371Z,28.08
2023-02-16T21:04:54.602Z,27.38
2023-02-16T21:07:22.643Z,35.13
2023-02-16T21:09:50.286Z,30.77
2023-02-16T21:12:18.510Z,24.75
2023-02-16T21:14:46.245Z,31.40
2023-02-16T21:17:13.849Z,31.75
2023-02-16T21:19:43.383Z,31.40
2023-02-16T21:24:41.214Z,29.77
2023-02-16T21:27:08.961Z,28.38
2023-02-16T21:29:37.980Z,32.67
2023-02-16T21:32:06.207Z,32.80
2023-02-16T21:34:35.160Z,29.92
2023-02-16T21:37:04.340Z,27.00
2023-02-16T21:39:32.914Z,28.75
2023-02-16T21:42:00.762Z,28.35
2023-02-16T21:44:28.491Z,26.02
2023-02-16T21:46:56.165Z,25.92
2023-02-16T21:49:23.910Z,28.98
2023-02-16T21:51:51.674Z,29.95
2023-02-16T21:54:20.640Z,28.38
2023-02-16T21:56:49.890Z,26.00
2023-02-16T21:59:18.949Z,25.77
2023-02-16T22:01:48.032Z,24.83
2023-02-16T22:04:17.472Z,24.70
2023-02-16T22:06:48.055Z,24.03
2023-02-16T22:09:18.160Z,24.92
2023-02-16T22:11:49.105Z,21.80
2023-02-16T22:14:17.172Z,25.70
2023-02-16T22:16:48.712Z,20.38
2023-02-16T22:19:18.276Z,23.55
2023-02-16T22:21:47.569Z,26.58
2023-02-16T22:24:19.013Z,22.15
2023-02-16T22:26:49.495Z,23.55
2023-02-16T22:29:17.760Z,24.30
2023-02-16T22:31:46.415Z,22.33
2023-02-16T22:34:17.296Z,23.05
2023-02-16T22:36:45.080Z,22.02
2023-02-16T22:39:13.848Z,26.30
2023-02-16T22:41:41.931Z,22.02
2023-02-16T22:44:12.382Z,25.33
2023-02-16T22:46:40.099Z,25.83
2023-02-16T22:49:09.725Z,25.30
2023-02-16T22:51:37.574Z,23.23
2023-02-16T22:54:06.028Z,24.38
2023-02-16T22:56:34.948Z,21.65
2023-02-16T22:59:03.360Z,17.92
2023-02-16T23:01:33.007Z,23.98
2023-02-16T23:04:02.388Z,23.67
2023-02-16T23:06:33.194Z,22.58
2023-02-16T23:09:03.021Z,18.37
2023-02-16T23:11:32.815Z,19.02
2023-02-16T23:14:00.702Z,21.08
2023-02-16T23:16:28.987Z,21.08
2023-02-16T23:18:59.528Z,19.67
2023-02-16T23:21:30.064Z,22.37
2023-02-16T23:23:58.854Z,20.47
2023-02-16T23:26:28.576Z,20.65
2023-02-16T23:29:00.629Z,18.52
2023-02-16T23:31:32.502Z,18.85
2023-02-16T23:34:03.599Z,19.55
2023-02-16T23:36:31.542Z,17.97
2023-02-16T23:39:00.147Z,23.02
2023-02-16T23:41:28.385Z,26.33
2023-02-16T23:43:55.931Z,30.45
2023-02-16T23:46:23.951Z,39.75
2023-02-16T23:48:51.970Z,44.92
2023-02-16T23:51:21.241Z,44.33
2023-02-16T23:53:49.189Z,36.95
2023-02-16T23:56:25.748Z,28.40
2023-02-16T23:58:57.276Z,26.13
